createdAt,value
2023-03-22T00:00:13.558Z,7.43
2023-03-22T00:02:40.037Z,6.93
2023-03-22T00:05:06.807Z,7.00
2023-03-22T00:07:33.349Z,6.40
2023-03-22T00:09:59.813Z,5.97
2023-03-22T00:12:26.301Z,6.93
2023-03-22T00:14:53.568Z,7.50
2023-03-22T00:17:20.015Z,7.07
2023-03-22T00:19:47.418Z,7.43
2023-03-22T00:22:14.779Z,8.27
2023-03-22T00:24:41.203Z,7.78
2023-03-22T00:27:07.737Z,7.85
2023-03-22T00:29:34.145Z,7.72
2023-03-22T00:32:00.690Z,7.88
2023-03-22T00:34:32.487Z,8.73
2023-03-22T00:36:59.853Z,8.13
2023-03-22T00:39:27.048Z,9.68
2023-03-22T00:41:53.553Z,8.35
2023-03-22T00:44:20.044Z,9.00
2023-03-22T00:46:46.550Z,8.85
2023-03-22T00:49:13.839Z,11.80
2023-03-22T00:51:40.331Z,9.55
2023-03-22T00:54:06.968Z,10.35
2023-03-22T00:56:33.961Z,9.55
2023-03-22T00:59:08.369Z,9.65
2023-03-22T01:01:34.918Z,9.20
2023-03-22T01:04:03.067Z,10.63
2023-03-22T01:06:30.569Z,10.82
2023-03-22T01:08:57.271Z,10.50
2023-03-22T01:11:24.256Z,10.20
2023-03-22T01:13:51.132Z,11.95
2023-03-22T01:16:18.102Z,9.48
2023-03-22T01:18:45.167Z,12.32
2023-03-22T01:21:11.763Z,11.45
2023-03-22T01:23:38.578Z,11.88
2023-03-22T01:26:05.384Z,11.38
2023-03-22T01:28:32.078Z,12.75
2023-03-22T01:31:02.271Z,13.15
2023-03-22T01:33:28.940Z,13.13
2023-03-22T01:35:55.473Z,12.77
2023-03-22T01:38:22.300Z,13.32
2023-03-22T01:40:53.685Z,13.15
2023-03-22T01:43:20.840Z,13.45
2023-03-22T01:45:48.221Z,13.95
2023-03-22T01:48:26.487Z,14.52
2023-03-22T01:51:02.870Z,15.52
2023-03-22T01:53:33.711Z,15.23
2023-03-22T01:56:01.016Z,15.90
2023-03-22T01:58:31.445Z,15.35
2023-03-22T02:01:01.564Z,16.60
2023-03-22T02:03:48.693Z,15.60
2023-03-22T02:06:15.729Z,15.82
2023-03-22T02:08:42.705Z,15.95
2023-03-22T02:11:16.243Z,15.55
2023-03-22T02:13:42.736Z,16.42
2023-03-22T02:16:38.574Z,16.35
2023-03-22T02:19:23.896Z,16.35
2023-03-22T02:22:02.440Z,19.98
2023-03-22T02:24:51.888Z,17.63
2023-03-22T02:27:18.476Z,18.45
2023-03-22T02:30:03.579Z,17.67
2023-03-22T02:32:42.275Z,17.75
2023-03-22T02:35:20.923Z,17.40
2023-03-22T02:38:02.737Z,17.25
2023-03-22T02:40:32.915Z,17.70
2023-03-22T02:43:03.465Z,18.60
2023-03-22T02:45:39.093Z,16.63
2023-03-22T02:48:08.160Z,18.23
2023-03-22T02:50:42.955Z,17.40
2023-03-22T02:53:13.067Z,17.63
2023-03-22T02:55:46.179Z,20.55
2023-03-22T02:58:12.594Z,18.27
2023-03-22T03:00:40.086Z,17.90
2023-03-22T03:03:11.451Z,19.00
2023-03-22T03:05:39.674Z,18.88
2023-03-22T03:08:06.704Z,19.88
2023-03-22T03:10:35.731Z,19.73
2023-03-22T03:13:02.412Z,20.33
2023-03-22T03:15:29.249Z,19.25
2023-03-22T03:18:05.215Z,18.42
2023-03-22T03:20:31.984Z,19.60
2023-03-22T03:22:58.380Z,19.33
2023-03-22T03:25:43.386Z,19.67
2023-03-22T03:28:30.321Z,19.60
2023-03-22T03:31:03.539Z,18.58
2023-03-22T03:33:32.733Z,20.65
2023-03-22T03:36:01.260Z,19.73
2023-03-22T03:38:29.127Z,21.52
2023-03-22T03:41:06.609Z,21.40
2023-03-22T03:43:34.384Z,19.33
2023-03-22T03:46:01.101Z,20.65
2023-03-22T03:48:30.085Z,21.25
2023-03-22T03:50:57.385Z,22.95
2023-03-22T03:53:23.975Z,21.77
2023-03-22T03:55:50.618Z,20.90
2023-03-22T03:58:17.549Z,18.95
2023-03-22T04:00:46.478Z,19.45
2023-03-22T04:03:41.672Z,17.90
2023-03-22T04:06:11.057Z,19.15
2023-03-22T04:08:41.384Z,20.52
2023-03-22T04:11:08.501Z,23.02
2023-03-22T04:13:35.675Z,19.83
2023-03-22T04:16:07.114Z,18.00
2023-03-22T04:18:36.337Z,17.65
2023-03-22T04:21:06.307Z,18.10
2023-03-22T04:23:41.067Z,18.20
2023-03-22T04:26:07.668Z,18.17
2023-03-22T04:28:44.313Z,15.63
2023-03-22T04:31:11.693Z,16.48
2023-03-22T04:34:05.471Z,18.33
2023-03-22T04:36:47.855Z,16.35
2023-03-22T04:39:23.739Z,15.32
2023-03-22T04:42:00.695Z,14.90
2023-03-22T04:44:27.402Z,13.93
2023-03-22T04:46:53.949Z,14.20
2023-03-22T04:49:20.549Z,14.27
2023-03-22T04:51:47.163Z,13.57
2023-03-22T04:54:26.571Z,14.10
2023-03-22T04:56:53.031Z,14.25
2023-03-22T04:59:22.025Z,15.98
2023-03-22T05:01:50.243Z,13.15
2023-03-22T05:04:20.987Z,12.77
2023-03-22T05:06:53.737Z,16.27
2023-03-22T05:09:26.171Z,13.90
2023-03-22T05:11:53.848Z,12.45
2023-03-22T05:14:46.241Z,12.13
2023-03-22T05:17:16.443Z,11.98
2023-03-22T05:19:43.913Z,13.15
2023-03-22T05:22:12.001Z,11.57
2023-03-22T05:24:43.835Z,14.57
2023-03-22T05:27:14.735Z,11.52
2023-03-22T05:29:45.161Z,12.52
2023-03-22T05:32:29.320Z,12.40
2023-03-22T05:34:56.640Z,12.18
2023-03-22T05:37:36.813Z,11.70
2023-03-22T05:40:05.478Z,14.10
2023-03-22T05:42:36.661Z,14.40
2023-03-22T05:45:11.833Z,11.25
2023-03-22T05:47:39.524Z,12.10
2023-03-22T05:50:13.622Z,11.70
2023-03-22T05:52:40.613Z,15.38
2023-03-22T05:55:23.198Z,10.73
2023-03-22T05:57:54.771Z,11.23
2023-03-22T06:00:21.863Z,12.32
2023-03-22T06:03:11.238Z,11.68
2023-03-22T06:05:42.519Z,9.85
2023-03-22T06:08:09.975Z,10.20
2023-03-22T06:10:36.576Z,9.30
2023-03-22T06:13:03.125Z,9.63
2023-03-22T06:15:32.705Z,9.57
2023-03-22T06:18:10.690Z,10.20
2023-03-22T06:20:41.966Z,10.68
2023-03-22T06:23:18.967Z,9.98
2023-03-22T06:25:46.686Z,10.15
2023-03-22T06:28:14.327Z,10.13
2023-03-22T06:30:48.587Z,9.93
2023-03-22T06:33:35.336Z,12.27
2023-03-22T06:36:09.889Z,11.65
2023-03-22T06:38:54.983Z,13.40
2023-03-22T06:41:21.975Z,11.95
2023-03-22T06:43:50.398Z,10.93
2023-03-22T06:46:34.307Z,11.30
2023-03-22T06:49:09.251Z,10.93
2023-03-22T06:51:35.921Z,11.55
2023-03-22T06:54:02.842Z,12.23
2023-03-22T06:56:29.536Z,12.52
2023-03-22T06:58:58.150Z,11.70
2023-03-22T07:01:24.980Z,7.28
2023-03-22T07:03:51.825Z,8.18
2023-03-22T07:06:21.542Z,7.20
2023-03-22T07:08:51.896Z,6.40
2023-03-22T07:11:23.031Z,6.22
2023-03-22T07:13:56.637Z,7.75
2023-03-22T07:16:23.131Z,7.68
2023-03-22T07:18:52.687Z,7.28
2023-03-22T07:21:19.376Z,8.15
2023-03-22T07:23:51.199Z,4.88
2023-03-22T07:26:19.794Z,8.40
2023-03-22T07:28:48.773Z,6.72
2023-03-22T07:31:15.757Z,10.15
2023-03-22T07:33:52.218Z,5.97
2023-03-22T07:36:25.632Z,6.60
2023-03-22T07:38:53.208Z,6.13
2023-03-22T07:41:30.290Z,6.15
2023-03-22T07:44:26.415Z,8.77
2023-03-22T07:47:11.047Z,5.90
2023-03-22T07:49:54.679Z,5.43
2023-03-22T07:52:26.849Z,5.93
2023-03-22T07:54:53.773Z,7.95
2023-03-22T07:57:20.449Z,8.02
2023-03-22T07:59:53.687Z,6.95
2023-03-22T08:02:20.602Z,8.85
2023-03-22T08:04:55.703Z,7.13
2023-03-22T08:07:37.853Z,8.15
2023-03-22T08:10:04.894Z,6.25
2023-03-22T08:12:32.666Z,7.07
2023-03-22T08:15:08.181Z,15.20
2023-03-22T08:17:35.045Z,4.18
2023-03-22T08:20:08.788Z,4.68
2023-03-22T08:22:45.471Z,8.15
2023-03-22T08:25:33.485Z,7.05
2023-03-22T08:28:06.885Z,5.70
2023-03-22T08:30:33.575Z,5.55
2023-03-22T08:33:00.222Z,5.43
2023-03-22T08:35:26.870Z,8.75
2023-03-22T08:37:54.743Z,4.70
2023-03-22T08:40:23.909Z,7.72
2023-03-22T08:42:54.410Z,3.80
2023-03-22T08:45:21.279Z,4.70
2023-03-22T08:47:53.896Z,4.93
2023-03-22T08:50:23.586Z,2.25
2023-03-22T08:53:04.043Z,4.53
2023-03-22T08:55:35.390Z,3.88
2023-03-22T08:58:11.832Z,6.88
2023-03-22T09:01:03.878Z,5.38
2023-03-22T09:03:36.931Z,5.32
2023-03-22T09:06:04.364Z,2.42
2023-03-22T09:08:35.792Z,4.95
2023-03-22T09:11:08.816Z,4.10
2023-03-22T09:13:35.438Z,4.60
2023-03-22T09:16:04.251Z,2.25
2023-03-22T09:18:32.764Z,5.35
2023-03-22T09:21:02.631Z,5.00
2023-03-22T09:23:36.449Z,2.95
2023-03-22T09:26:04.998Z,3.30
2023-03-22T09:28:31.684Z,4.00
2023-03-22T09:31:02.488Z,6.15
2023-03-22T09:33:30.315Z,3.75
2023-03-22T09:35:57.137Z,4.50
2023-03-22T09:38:25.016Z,4.35
2023-03-22T09:41:00.730Z,6.32
2023-03-22T09:43:33.261Z,3.70
2023-03-22T09:46:01.717Z,2.50
2023-03-22T09:48:33.457Z,4.05
2023-03-22T09:51:01.369Z,6.68
2023-03-22T09:53:28.544Z,3.88
2023-03-22T09:56:01.262Z,4.80
2023-03-22T09:58:27.736Z,3.42
2023-03-22T10:01:01.079Z,4.95
2023-03-22T10:03:46.624Z,4.30
2023-03-22T10:06:20.431Z,4.57
2023-03-22T10:08:49.723Z,6.22
2023-03-22T10:11:32.250Z,6.15
2023-03-22T10:14:05.184Z,4.57
2023-03-22T10:16:34.358Z,2.92
2023-03-22T10:19:04.640Z,6.50
2023-03-22T10:21:31.672Z,3.35
2023-03-22T10:24:05.196Z,5.13
2023-03-22T10:26:37.155Z,6.68
2023-03-22T10:29:05.881Z,3.83
2023-03-22T10:31:33.881Z,6.78
2023-03-22T10:34:07.890Z,4.85
2023-03-22T10:36:36.727Z,4.90
2023-03-22T10:39:18.330Z,2.05
2023-03-22T10:41:45.967Z,3.78
2023-03-22T10:44:16.576Z,2.10
2023-03-22T10:46:43.927Z,3.33
2023-03-22T10:49:16.047Z,5.50
2023-03-22T10:51:48.718Z,5.45
2023-03-22T10:54:16.348Z,4.47
2023-03-22T10:56:44.356Z,3.22
2023-03-22T10:59:31.488Z,3.15
2023-03-22T11:01:58.091Z,3.17
2023-03-22T11:04:24.750Z,4.47
2023-03-22T11:06:54.743Z,3.78
2023-03-22T11:09:23.695Z,4.03
2023-03-22T11:11:56.151Z,3.35
2023-03-22T11:14:29.182Z,3.70
2023-03-22T11:16:57.274Z,3.40
2023-03-22T11:19:28.352Z,4.60
2023-03-22T11:21:56.192Z,4.22
2023-03-22T11:24:24.895Z,3.72
2023-03-22T11:27:06.196Z,2.15
2023-03-22T11:29:40.357Z,3.83
2023-03-22T11:32:19.371Z,3.95
2023-03-22T11:34:46.452Z,7.10
2023-03-22T11:37:18.069Z,4.75
2023-03-22T11:39:51.156Z,4.65
2023-03-22T11:42:19.160Z,2.83
2023-03-22T11:44:45.744Z,5.45
2023-03-22T11:47:13.290Z,4.35
2023-03-22T11:49:43.906Z,3.05
2023-03-22T11:52:12.620Z,6.25
2023-03-22T11:54:39.597Z,3.80
2023-03-22T11:57:09.678Z,2.38
2023-03-22T11:59:40.313Z,5.03
2023-03-22T12:02:09.878Z,5.72
2023-03-22T12:04:38.213Z,6.07
2023-03-22T12:07:09.529Z,3.05
2023-03-22T12:09:42.025Z,4.15
2023-03-22T12:12:14.242Z,2.08
2023-03-22T12:14:47.314Z,2.55
2023-03-22T12:17:18.494Z,3.58
2023-03-22T12:19:51.057Z,3.30
2023-03-22T12:22:19.827Z,3.60
2023-03-22T12:24:46.654Z,2.72
2023-03-22T12:27:16.789Z,3.60
2023-03-22T12:29:47.192Z,2.58
2023-03-22T12:32:19.495Z,4.85
2023-03-22T12:34:48.789Z,2.67
2023-03-22T12:37:20.488Z,3.78
2023-03-22T12:39:51.306Z,3.05
2023-03-22T12:42:24.156Z,4.40
2023-03-22T12:45:04.240Z,2.58
2023-03-22T12:47:49.555Z,4.05
2023-03-22T12:50:42.915Z,3.80
2023-03-22T12:53:17.588Z,3.80
2023-03-22T12:55:46.244Z,2.28
2023-03-22T12:58:14.216Z,5.93
2023-03-22T13:00:53.722Z,3.42
2023-03-22T13:03:24.568Z,2.45
2023-03-22T13:05:59.609Z,3.42
2023-03-22T13:08:26.324Z,6.93
2023-03-22T13:11:05.085Z,2.45
2023-03-22T13:13:31.536Z,3.63
2023-03-22T13:16:13.201Z,3.00
2023-03-22T13:18:58.007Z,5.03
2023-03-22T13:21:27.073Z,3.78
2023-03-22T13:24:00.566Z,3.35
2023-03-22T13:26:36.460Z,4.18
2023-03-22T13:29:08.453Z,3.03
2023-03-22T13:31:40.887Z,4.20
2023-03-22T13:34:16.262Z,2.47
2023-03-22T13:36:49.340Z,4.47
2023-03-22T13:39:16.494Z,11.75
2023-03-22T13:41:45.845Z,3.35
2023-03-22T13:44:20.064Z,2.28
2023-03-22T13:46:50.257Z,5.05
2023-03-22T13:49:27.996Z,2.85
2023-03-22T13:51:56.940Z,6.82
2023-03-22T13:54:26.568Z,3.78
2023-03-22T13:56:59.532Z,4.45
2023-03-22T13:59:34.062Z,4.45
2023-03-22T14:02:04.815Z,4.10
2023-03-22T14:04:50.323Z,3.70
2023-03-22T14:07:25.713Z,5.55
2023-03-22T14:10:11.429Z,5.05
2023-03-22T14:12:37.908Z,2.92
2023-03-22T14:15:06.660Z,3.70
2023-03-22T14:17:42.148Z,4.85
2023-03-22T14:20:12.125Z,5.57
